createdAt,value
2018-08-12T00:00:23.368Z,21.32
2018-08-12T00:02:53.169Z,21.21
2018-08-12T00:05:22.554Z,20.95
2018-08-12T00:07:51.854Z,20.96
2018-08-12T00:10:21.452Z,20.71
2018-08-12T00:12:50.548Z,20.70
2018-08-12T00:15:21.570Z,20.90
2018-08-12T00:17:50.801Z,20.84
2018-08-12T00:20:24.079Z,20.48
2018-08-12T00:22:53.974Z,20.32
2018-08-12T00:25:24.183Z,20.47
2018-08-12T00:27:53.626Z,20.43
2018-08-12T00:30:22.972Z,20.40
2018-08-12T00:32:52.321Z,20.49
2018-08-12T00:35:21.473Z,20.53
2018-08-12T00:37:50.728Z,20.54
2018-08-12T00:40:20.083Z,20.43
2018-08-12T00:42:49.288Z,20.37
2018-08-12T00:45:19.803Z,20.33
2018-08-12T00:47:49.723Z,20.30
2018-08-12T00:50:19.740Z,20.21
2018-08-12T00:52:49.048Z,20.14
2018-08-12T00:55:19.151Z,20.09
2018-08-12T00:57:48.903Z,20.20
2018-08-12T01:00:21.996Z,20.09
2018-08-12T01:02:51.232Z,19.98
2018-08-12T01:05:20.607Z,19.85
2018-08-12T01:07:50.666Z,19.70
2018-08-12T01:10:20.622Z,19.81
2018-08-12T01:12:50.167Z,19.78
2018-08-12T01:15:21.476Z,19.95
2018-08-12T01:17:50.491Z,20.03
2018-08-12T01:20:24.493Z,20.22
2018-08-12T01:22:53.910Z,20.29
2018-08-12T01:25:23.677Z,20.32
2018-08-12T01:27:52.968Z,20.26
2018-08-12T01:30:22.802Z,20.22
2018-08-12T01:32:52.143Z,20.25
2018-08-12T01:35:21.480Z,20.15
2018-08-12T01:37:50.947Z,20.16
2018-08-12T01:40:20.544Z,20.17
2018-08-12T01:42:49.687Z,20.22
2018-08-12T01:45:20.472Z,20.39
2018-08-12T01:47:49.695Z,20.38
2018-08-12T01:50:19.971Z,20.36
2018-08-12T01:52:49.155Z,20.42
2018-08-12T01:55:18.384Z,20.47
2018-08-12T01:57:47.630Z,20.57
2018-08-12T02:00:19.690Z,20.19
2018-08-12T02:02:49.371Z,19.81
2018-08-12T02:05:18.919Z,19.62
2018-08-12T02:07:48.312Z,19.50
2018-08-12T02:10:17.771Z,19.51
2018-08-12T02:12:47.113Z,19.52
2018-08-12T02:15:16.315Z,19.55
2018-08-12T02:17:45.663Z,19.58
2018-08-12T02:20:14.967Z,19.70
2018-08-12T02:22:44.263Z,19.78
2018-08-12T02:25:13.525Z,19.78
2018-08-12T02:27:42.503Z,19.81
2018-08-12T02:30:12.987Z,19.77
2018-08-12T02:32:43.113Z,19.80
2018-08-12T02:35:12.217Z,19.81
2018-08-12T02:37:41.968Z,19.86
2018-08-12T02:40:11.558Z,19.88
2018-08-12T02:42:40.745Z,19.96
2018-08-12T02:45:13.220Z,19.97
2018-08-12T02:47:42.631Z,20.01
2018-08-12T02:50:11.931Z,20.05
2018-08-12T02:52:41.285Z,20.13
2018-08-12T02:55:11.207Z,20.19
2018-08-12T02:57:40.609Z,20.23
2018-08-12T03:00:11.295Z,20.26
2018-08-12T03:02:40.536Z,20.23
2018-08-12T03:05:09.465Z,20.25
2018-08-12T03:07:38.919Z,20.29
2018-08-12T03:10:08.869Z,20.29
2018-08-12T03:12:38.408Z,20.35
2018-08-12T03:15:08.762Z,20.37
2018-08-12T03:17:38.410Z,20.42
2018-08-12T03:20:09.650Z,20.46
2018-08-12T03:22:38.996Z,20.54
2018-08-12T03:25:09.291Z,20.56
2018-08-12T03:27:38.511Z,20.59
2018-08-12T03:30:09.162Z,20.61
2018-08-12T03:32:38.422Z,20.58
2018-08-12T03:35:07.744Z,20.66
2018-08-12T03:37:36.918Z,20.71
2018-08-12T03:40:08.389Z,20.73
2018-08-12T03:42:37.699Z,20.79
2018-08-12T03:45:07.884Z,20.76
2018-08-12T03:47:37.217Z,20.74
2018-08-12T03:50:07.019Z,20.84
2018-08-12T03:52:36.327Z,20.93
2018-08-12T03:55:05.793Z,21.00
2018-08-12T03:57:35.083Z,21.00
2018-08-12T04:00:05.651Z,21.04
2018-08-12T04:02:34.999Z,21.14
2018-08-12T04:05:04.352Z,21.18
2018-08-12T04:07:33.349Z,21.16
2018-08-12T04:10:02.652Z,21.27
2018-08-12T04:12:32.004Z,21.26
2018-08-12T04:15:01.227Z,21.22
2018-08-12T04:17:30.457Z,21.22
2018-08-12T04:19:59.656Z,21.24
2018-08-12T04:22:28.763Z,21.28
2018-08-12T04:24:57.998Z,21.30
2018-08-12T04:27:27.279Z,21.34
2018-08-12T04:29:56.222Z,21.39
2018-08-12T04:32:25.155Z,21.37
2018-08-12T04:34:54.515Z,21.36
2018-08-12T04:37:23.868Z,21.43
2018-08-12T04:39:53.251Z,21.45
2018-08-12T04:42:22.513Z,21.45
2018-08-12T04:44:51.712Z,21.52
2018-08-12T04:47:20.779Z,21.56
2018-08-12T04:49:49.754Z,21.62
2018-08-12T04:52:18.930Z,21.68
2018-08-12T04:54:48.098Z,21.69
2018-08-12T04:57:17.439Z,21.74
2018-08-12T04:59:46.663Z,21.80
2018-08-12T05:02:15.739Z,21.84
2018-08-12T05:04:45.228Z,21.98
2018-08-12T05:07:14.614Z,22.01
2018-08-12T05:09:43.576Z,22.11
2018-08-12T05:12:12.935Z,22.08
2018-08-12T05:14:42.431Z,22.09
2018-08-12T05:17:11.768Z,22.19
2018-08-12T05:19:40.934Z,22.28
2018-08-12T05:22:10.423Z,22.30
2018-08-12T05:24:39.562Z,22.23
2018-08-12T05:27:08.791Z,22.22
2018-08-12T05:29:38.217Z,22.25
2018-08-12T05:32:07.727Z,22.18
2018-08-12T05:34:36.793Z,22.19
2018-08-12T05:37:06.067Z,22.22
2018-08-12T05:39:35.413Z,22.33
2018-08-12T05:42:04.593Z,22.42
2018-08-12T05:44:34.013Z,22.39
2018-08-12T05:47:02.883Z,22.40
2018-08-12T05:49:32.101Z,22.49
2018-08-12T05:52:01.392Z,22.47
2018-08-12T05:54:30.702Z,22.61
2018-08-12T05:57:00.058Z,22.74
2018-08-12T05:59:29.396Z,22.83
2018-08-12T06:01:58.695Z,22.94
2018-08-12T06:04:27.584Z,23.07
2018-08-12T06:06:56.843Z,23.29
2018-08-12T06:09:26.124Z,23.26
2018-08-12T06:11:55.155Z,23.32
2018-08-12T06:14:24.664Z,23.40
2018-08-12T06:16:53.981Z,23.36
2018-08-12T06:19:23.397Z,23.56
2018-08-12T06:21:52.533Z,23.50
2018-08-12T06:24:21.819Z,23.54
2018-08-12T06:26:51.093Z,23.49
2018-08-12T06:29:20.002Z,23.55
2018-08-12T06:31:49.020Z,23.70
2018-08-12T06:34:18.313Z,23.81
2018-08-12T06:36:47.743Z,23.96
2018-08-12T06:39:16.895Z,24.12
2018-08-12T06:41:46.203Z,24.30
2018-08-12T06:44:15.154Z,24.39
2018-08-12T06:46:44.465Z,24.48
2018-08-12T06:49:13.824Z,24.41
2018-08-12T06:51:43.008Z,24.52
2018-08-12T06:54:12.334Z,24.39
2018-08-12T06:56:41.727Z,24.49
2018-08-12T06:59:11.036Z,24.65
2018-08-12T07:01:40.223Z,24.78
2018-08-12T07:04:09.392Z,24.90
2018-08-12T07:06:38.804Z,24.94
2018-08-12T07:09:10.048Z,24.74
2018-08-12T07:11:39.418Z,24.68
2018-08-12T07:14:08.676Z,24.78
2018-08-12T07:16:38.220Z,24.93
2018-08-12T07:19:08.569Z,25.13
2018-08-12T07:21:37.842Z,25.16
2018-08-12T07:24:06.993Z,25.28
2018-08-12T07:26:36.280Z,25.37
2018-08-12T07:29:05.693Z,25.51
2018-08-12T07:31:35.183Z,25.35
2018-08-12T07:34:04.600Z,25.30
2018-08-12T07:36:33.624Z,25.42
2018-08-12T07:39:02.915Z,25.58
2018-08-12T07:41:32.047Z,25.48
2018-08-12T07:44:01.243Z,25.40
2018-08-12T07:46:30.564Z,25.40
2018-08-12T07:48:59.557Z,25.49
2018-08-12T07:51:28.835Z,25.60
2018-08-12T07:53:57.979Z,25.80
2018-08-12T07:56:27.333Z,25.96
2018-08-12T07:58:56.336Z,26.18
2018-08-12T08:01:25.651Z,26.19
2018-08-12T08:03:54.963Z,26.08
2018-08-12T08:06:24.552Z,26.13
2018-08-12T08:08:53.639Z,26.24
2018-08-12T08:11:22.960Z,26.45
2018-08-12T08:13:52.352Z,26.65
2018-08-12T08:16:21.571Z,26.87
2018-08-12T08:18:50.576Z,27.11
2018-08-12T08:21:19.913Z,27.36
2018-08-12T08:23:49.307Z,27.44
2018-08-12T08:26:18.590Z,27.53
2018-08-12T08:28:47.879Z,27.63
2018-08-12T08:31:17.252Z,27.81
2018-08-12T08:33:46.707Z,28.07
2018-08-12T08:36:16.097Z,28.32
2018-08-12T08:38:45.404Z,28.59
2018-08-12T08:41:14.532Z,28.76
2018-08-12T08:43:43.804Z,28.82
2018-08-12T08:46:12.995Z,29.18
2018-08-12T08:48:42.258Z,29.77
2018-08-12T08:51:11.688Z,30.27
2018-08-12T08:53:41.039Z,30.97
2018-08-12T08:56:10.524Z,30.91
2018-08-12T08:58:39.747Z,31.94
2018-08-12T09:01:08.844Z,33.16
2018-08-12T09:03:38.058Z,34.43
2018-08-12T09:06:07.144Z,35.19
2018-08-12T09:08:37.447Z,36.54
2018-08-12T09:11:06.552Z,37.71
2018-08-12T09:13:35.865Z,38.58
2018-08-12T09:16:05.290Z,39.24
2018-08-12T09:18:34.548Z,39.87
2018-08-12T09:21:04.048Z,41.22
2018-08-12T09:23:33.355Z,41.47
2018-08-12T09:26:02.703Z,41.34
2018-08-12T09:28:31.679Z,40.46
2018-08-12T09:31:01.039Z,41.10
2018-08-12T09:33:30.351Z,42.63
2018-08-12T09:35:59.290Z,43.70
2018-08-12T09:38:28.368Z,44.14
2018-08-12T09:40:57.651Z,44.02
2018-08-12T09:43:26.900Z,43.78
2018-08-12T09:45:55.919Z,44.30
2018-08-12T09:48:25.160Z,44.62
2018-08-12T09:50:54.611Z,45.02
2018-08-12T09:53:24.167Z,44.41
2018-08-12T09:55:53.210Z,45.94
2018-08-12T09:58:22.640Z,46.46
2018-08-12T10:00:51.790Z,48.28
2018-08-12T10:03:20.911Z,49.23
2018-08-12T10:05:50.196Z,50.07
2018-08-12T10:08:19.607Z,50.33
2018-08-12T10:10:48.998Z,49.34
2018-08-12T10:13:18.401Z,49.64
2018-08-12T10:15:47.785Z,50.22
2018-08-12T10:18:17.305Z,48.33
2018-08-12T10:20:47.897Z,47.53
2018-08-12T10:23:17.352Z,48.17
2018-08-12T10:25:46.646Z,48.52
2018-08-12T10:28:15.716Z,48.33
2018-08-12T10:30:44.731Z,46.99
2018-08-12T10:33:14.043Z,45.45
2018-08-12T10:35:43.428Z,44.35
2018-08-12T10:38:12.771Z,43.47
2018-08-12T10:40:42.072Z,43.39
2018-08-12T10:43:11.465Z,43.60
2018-08-12T10:45:40.628Z,44.42
2018-08-12T10:48:09.928Z,45.30
2018-08-12T10:50:39.288Z,45.73
2018-08-12T10:53:08.596Z,45.73
2018-08-12T10:55:37.907Z,44.98
2018-08-12T10:58:07.291Z,44.48
2018-08-12T11:00:38.154Z,44.70
2018-08-12T11:03:07.851Z,45.38
2018-08-12T11:05:37.164Z,45.64
2018-08-12T11:08:06.623Z,45.68
2018-08-12T11:10:36.118Z,46.36
2018-08-12T11:13:05.314Z,47.34
2018-08-12T11:15:34.664Z,47.97
2018-08-12T11:18:03.982Z,47.99
2018-08-12T11:20:33.284Z,48.61
2018-08-12T11:23:02.763Z,49.52
2018-08-12T11:25:32.302Z,50.19
2018-08-12T11:28:01.584Z,50.48
2018-08-12T11:30:30.920Z,50.60
2018-08-12T11:33:00.224Z,50.66
2018-08-12T11:35:29.243Z,50.56
2018-08-12T11:37:58.313Z,50.42
2018-08-12T11:40:27.567Z,50.35
2018-08-12T11:42:56.871Z,50.50
2018-08-12T11:45:26.211Z,51.23
2018-08-12T11:47:55.211Z,51.58
2018-08-12T11:50:24.095Z,51.96
2018-08-12T11:52:53.333Z,52.16
2018-08-12T11:55:22.583Z,51.36
2018-08-12T11:57:51.985Z,50.74
2018-08-12T12:00:22.124Z,50.83
2018-08-12T12:02:52.142Z,51.24
2018-08-12T12:05:21.487Z,51.71
2018-08-12T12:07:50.661Z,51.87
2018-08-12T12:10:22.376Z,50.95
2018-08-12T12:12:52.338Z,50.97
2018-08-12T12:15:21.719Z,51.31
2018-08-12T12:17:50.980Z,50.98
2018-08-12T12:20:21.296Z,50.19
2018-08-12T12:22:50.648Z,50.21
2018-08-12T12:25:20.894Z,48.78
2018-08-12T12:27:49.802Z,47.57
2018-08-12T12:30:20.503Z,47.50
2018-08-12T12:32:51.046Z,47.58
2018-08-12T12:35:20.290Z,46.81
2018-08-12T12:37:49.671Z,47.02
2018-08-12T12:40:19.648Z,47.21
2018-08-12T12:42:49.283Z,45.80
2018-08-12T12:45:18.459Z,45.20
2018-08-12T12:47:47.881Z,44.92
2018-08-12T12:50:19.923Z,44.59
2018-08-12T12:52:50.008Z,44.91
2018-08-12T12:55:20.267Z,45.66
2018-08-12T12:57:49.811Z,45.88
2018-08-12T13:00:19.914Z,46.25
2018-08-12T13:02:49.410Z,46.56
2018-08-12T13:05:19.752Z,46.37
2018-08-12T13:07:49.488Z,45.71
2018-08-12T13:10:19.004Z,44.91
2018-08-12T13:12:48.512Z,45.66
2018-08-12T13:15:18.262Z,46.00
2018-08-12T13:17:47.826Z,46.47
2018-08-12T13:20:19.558Z,46.95
2018-08-12T13:22:49.599Z,47.55
2018-08-12T13:25:20.501Z,48.13
2018-08-12T13:27:50.045Z,48.54
2018-08-12T13:30:19.882Z,48.23
2018-08-12T13:32:49.771Z,47.65
2018-08-12T13:35:18.882Z,47.63
2018-08-12T13:37:48.038Z,47.09
2018-08-12T13:40:18.151Z,45.71
2018-08-12T13:42:47.742Z,45.49
2018-08-12T13:45:16.983Z,45.61
2018-08-12T13:47:46.845Z,45.40
2018-08-12T13:50:20.807Z,44.89
2018-08-12T13:52:50.726Z,44.31
2018-08-12T13:55:20.384Z,43.67
2018-08-12T13:57:50.263Z,42.91
2018-08-12T14:00:21.337Z,41.30
2018-08-12T14:02:50.772Z,39.96
2018-08-12T14:05:20.178Z,38.97
2018-08-12T14:07:49.828Z,37.93
2018-08-12T14:10:19.087Z,37.24
2018-08-12T14:12:48.456Z,36.52
2018-08-12T14:15:18.899Z,35.89
2018-08-12T14:17:50.040Z,35.49
2018-08-12T14:20:20.441Z,35.42
2018-08-12T14:22:49.979Z,35.20
2018-08-12T14:25:19.428Z,35.05
2018-08-12T14:27:48.726Z,34.44
2018-08-12T14:30:20.091Z,34.11
2018-08-12T14:32:49.743Z,33.89
2018-08-12T14:35:19.353Z,33.83
2018-08-12T14:37:48.604Z,33.71
2018-08-12T14:40:17.887Z,33.64
2018-08-12T14:42:46.994Z,33.35
2018-08-12T14:45:17.024Z,33.28
2018-08-12T14:47:46.775Z,33.22
2018-08-12T14:50:18.715Z,33.01
2018-08-12T14:52:47.987Z,32.81
2018-08-12T14:55:18.951Z,32.69
2018-08-12T14:57:48.475Z,32.43
2018-08-12T15:00:21.665Z,32.30
2018-08-12T15:02:52.347Z,32.36
2018-08-12T15:05:21.622Z,32.05
2018-08-12T15:07:50.833Z,32.03
2018-08-12T15:10:19.971Z,31.97
2018-08-12T15:12:49.474Z,31.91
2018-08-12T15:15:19.060Z,31.88
2018-08-12T15:17:49.609Z,31.83
2018-08-12T15:20:18.960Z,31.80
2018-08-12T15:22:49.529Z,31.80
2018-08-12T15:25:20.355Z,31.57
2018-08-12T15:27:49.718Z,31.38
2018-08-12T15:30:19.125Z,31.48
2018-08-12T15:32:48.438Z,31.27
2018-08-12T15:35:17.420Z,31.10
2018-08-12T15:37:46.815Z,31.19
2018-08-12T15:40:16.668Z,31.11
2018-08-12T15:42:46.033Z,30.86
2018-08-12T15:45:16.398Z,30.76
2018-08-12T15:47:46.321Z,30.89
2018-08-12T15:50:15.587Z,30.79
2018-08-12T15:52:46.030Z,30.60
2018-08-12T15:55:15.581Z,30.65
2018-08-12T15:57:44.900Z,30.66
2018-08-12T16:00:21.822Z,30.54
2018-08-12T16:02:51.684Z,30.43
2018-08-12T16:05:20.750Z,30.25
2018-08-12T16:07:50.328Z,30.13
2018-08-12T16:10:21.586Z,30.21
2018-08-12T16:12:51.936Z,30.21
2018-08-12T16:15:21.594Z,30.23
2018-08-12T16:17:51.056Z,30.23
2018-08-12T16:20:20.398Z,30.25
2018-08-12T16:22:50.000Z,30.00
2018-08-12T16:25:20.848Z,30.03
2018-08-12T16:27:50.608Z,30.04
2018-08-12T16:30:20.330Z,29.79
2018-08-12T16:32:49.620Z,29.79
2018-08-12T16:35:19.104Z,29.73
2018-08-12T16:37:48.683Z,29.63
2018-08-12T16:40:19.360Z,29.56
2018-08-12T16:42:48.867Z,29.46
2018-08-12T16:45:18.878Z,29.37
2018-08-12T16:47:48.487Z,29.23
2018-08-12T16:50:17.687Z,29.11
2018-08-12T16:52:47.139Z,28.89
2018-08-12T16:55:17.986Z,28.89
2018-08-12T16:57:47.786Z,28.85
2018-08-12T17:00:19.763Z,28.76
2018-08-12T17:02:49.099Z,28.66
2018-08-12T17:05:22.809Z,28.57
2018-08-12T17:07:52.369Z,28.33
2018-08-12T17:10:22.057Z,28.32
2018-08-12T17:12:51.294Z,28.20
2018-08-12T17:15:21.824Z,28.10
2018-08-12T17:17:51.557Z,27.92
2018-08-12T17:20:21.862Z,27.69
2018-08-12T17:22:51.267Z,27.54
2018-08-12T17:25:20.399Z,27.38
2018-08-12T17:27:49.437Z,27.32
2018-08-12T17:30:19.014Z,27.24
2018-08-12T17:32:48.564Z,27.13
2018-08-12T17:35:17.665Z,27.01
2018-08-12T17:37:46.959Z,26.75
2018-08-12T17:40:16.743Z,26.62
2018-08-12T17:42:46.202Z,26.56
2018-08-12T17:45:15.413Z,26.44
2018-08-12T17:47:44.952Z,26.52
2018-08-12T17:50:16.036Z,26.53
2018-08-12T17:52:45.562Z,26.59
2018-08-12T17:55:14.847Z,26.66
2018-08-12T17:57:44.159Z,26.67
2018-08-12T18:00:16.470Z,26.76
2018-08-12T18:02:45.931Z,26.66
2018-08-12T18:05:15.429Z,26.63
2018-08-12T18:07:44.779Z,26.64
2018-08-12T18:10:14.037Z,26.53
2018-08-12T18:12:43.281Z,26.56
2018-08-12T18:15:13.048Z,26.50
2018-08-12T18:17:42.967Z,26.46
2018-08-12T18:20:12.460Z,26.45
2018-08-12T18:22:41.591Z,26.29
2018-08-12T18:25:11.736Z,26.37
2018-08-12T18:27:41.013Z,26.28
2018-08-12T18:30:12.239Z,26.40
2018-08-12T18:32:41.576Z,26.34
2018-08-12T18:35:11.488Z,26.28
2018-08-12T18:37:40.951Z,26.13
2018-08-12T18:40:11.127Z,26.19
2018-08-12T18:42:40.266Z,26.06
2018-08-12T18:45:09.546Z,25.87
2018-08-12T18:47:38.966Z,25.81
2018-08-12T18:50:09.480Z,25.95
2018-08-12T18:52:38.866Z,25.79
2018-08-12T18:55:09.773Z,25.93
2018-08-12T18:57:38.847Z,26.00
2018-08-12T19:00:09.792Z,25.91
2018-08-12T19:02:39.227Z,26.04
2018-08-12T19:05:09.519Z,26.01
2018-08-12T19:07:38.623Z,25.85
2018-08-12T19:10:08.847Z,25.65
2018-08-12T19:12:38.063Z,25.70
2018-08-12T19:15:08.766Z,25.68
2018-08-12T19:17:38.055Z,25.61
2018-08-12T19:20:08.243Z,25.53
2018-08-12T19:22:37.994Z,25.43
2018-08-12T19:25:08.036Z,25.41
2018-08-12T19:27:38.347Z,25.40
2018-08-12T19:30:11.707Z,25.35
2018-08-12T19:32:41.065Z,25.32
2018-08-12T19:35:11.212Z,25.34
2018-08-12T19:37:40.321Z,25.25
2018-08-12T19:40:09.979Z,25.07
2018-08-12T19:42:39.353Z,25.13
2018-08-12T19:45:09.648Z,24.99
2018-08-12T19:47:39.062Z,25.02
2018-08-12T19:50:08.603Z,25.01
2018-08-12T19:52:37.803Z,25.08
2018-08-12T19:55:07.878Z,25.00
2018-08-12T19:57:37.211Z,25.00
2018-08-12T20:00:08.490Z,25.13
2018-08-12T20:02:37.778Z,25.13
2018-08-12T20:05:06.979Z,25.29
2018-08-12T20:07:36.336Z,25.43
2018-08-12T20:10:06.753Z,25.43
2018-08-12T20:12:35.855Z,25.50
2018-08-12T20:15:05.414Z,25.42
2018-08-12T20:17:34.360Z,25.31
2018-08-12T20:20:03.631Z,25.40
2018-08-12T20:22:32.931Z,25.35
2018-08-12T20:25:02.298Z,25.41
2018-08-12T20:27:31.716Z,25.21
2018-08-12T20:30:01.091Z,25.35
2018-08-12T20:32:30.381Z,25.38
2018-08-12T20:34:59.554Z,25.25
2018-08-12T20:37:28.686Z,25.27
2018-08-12T20:39:57.906Z,25.37
2018-08-12T20:42:27.304Z,25.52
2018-08-12T20:44:56.509Z,25.38
2018-08-12T20:47:25.844Z,25.47
2018-08-12T20:49:55.066Z,25.29
2018-08-12T20:52:24.441Z,25.21
2018-08-12T20:54:53.527Z,25.30
2018-08-12T20:57:22.879Z,25.30
2018-08-12T20:59:51.755Z,25.10
2018-08-12T21:02:21.111Z,25.24
2018-08-12T21:04:50.250Z,25.19
2018-08-12T21:07:19.649Z,25.17
2018-08-12T21:09:49.098Z,25.11
2018-08-12T21:12:18.440Z,25.20
2018-08-12T21:14:47.838Z,25.22
2018-08-12T21:17:17.100Z,25.34
2018-08-12T21:19:46.032Z,25.30
2018-08-12T21:22:15.432Z,25.17
2018-08-12T21:24:44.451Z,25.12
2018-08-12T21:27:13.787Z,25.04
2018-08-12T21:29:43.152Z,24.95
2018-08-12T21:32:12.235Z,24.95
2018-08-12T21:34:41.444Z,24.97
2018-08-12T21:37:10.923Z,24.85
2018-08-12T21:39:40.388Z,24.60
2018-08-12T21:42:09.179Z,24.26
2018-08-12T21:44:38.412Z,24.29
2018-08-12T21:47:07.703Z,24.17
2018-08-12T21:49:36.889Z,23.68
2018-08-12T21:52:06.424Z,23.68
2018-08-12T21:54:35.724Z,23.66
2018-08-12T21:57:04.928Z,23.71
2018-08-12T21:59:33.850Z,23.65
2018-08-12T22:02:03.162Z,23.76
2018-08-12T22:04:32.602Z,23.71
2018-08-12T22:07:01.959Z,23.43
2018-08-12T22:09:31.298Z,23.36
2018-08-12T22:12:00.647Z,23.47
2018-08-12T22:14:29.998Z,23.32
2018-08-12T22:16:59.027Z,23.37
2018-08-12T22:19:28.372Z,23.25
2018-08-12T22:21:57.624Z,23.25
2018-08-12T22:24:26.982Z,23.26
2018-08-12T22:26:56.288Z,23.29
2018-08-12T22:29:25.684Z,23.15
2018-08-12T22:31:55.083Z,23.13
2018-08-12T22:34:24.340Z,23.08
2018-08-12T22:36:53.529Z,22.97
2018-08-12T22:39:22.687Z,22.95
2018-08-12T22:41:52.008Z,22.44
2018-08-12T22:44:21.292Z,22.43
2018-08-12T22:46:50.543Z,22.50
2018-08-12T22:49:19.675Z,22.48
2018-08-12T22:51:48.699Z,22.33
2018-08-12T22:54:17.976Z,22.28
2018-08-12T22:56:46.995Z,22.10
2018-08-12T22:59:16.452Z,22.19
2018-08-12T23:01:45.400Z,22.11
2018-08-12T23:04:14.854Z,22.10
2018-08-12T23:06:44.311Z,21.86
2018-08-12T23:09:13.755Z,21.87
2018-08-12T23:11:43.008Z,21.93
2018-08-12T23:14:12.368Z,21.95
2018-08-12T23:16:52.556Z,21.96
2018-08-12T23:19:21.580Z,21.82
2018-08-12T23:21:50.647Z,21.76
2018-08-12T23:24:19.706Z,21.83
2018-08-12T23:26:48.762Z,21.76
2018-08-12T23:29:18.088Z,21.64
2018-08-12T23:31:47.383Z,21.70
2018-08-12T23:34:16.695Z,21.38
2018-08-12T23:36:46.017Z,21.50
2018-08-12T23:39:15.288Z,21.53
2018-08-12T23:41:44.353Z,21.52
2018-08-12T23:44:13.320Z,21.41
2018-08-12T23:46:43.018Z,21.38
2018-08-12T23:49:12.229Z,21.45
2018-08-12T23:51:41.583Z,21.37
2018-08-12T23:54:11.118Z,21.15
2018-08-12T23:56:40.480Z,21.03
2018-08-12T23:59:09.531Z,21.08
